createdAt,value
2023-04-17T00:00:50.329Z,69.64
2023-04-17T00:03:20.102Z,69.31
2023-04-17T00:05:48.881Z,69.36
2023-04-17T00:08:17.165Z,69.61
2023-04-17T00:10:51.116Z,69.30
2023-04-17T00:13:25.466Z,69.11
2023-04-17T00:15:53.777Z,69.45
2023-04-17T00:18:23.607Z,69.60
2023-04-17T00:20:51.846Z,69.43
2023-04-17T00:23:20.548Z,69.27
2023-04-17T00:25:48.868Z,69.48
2023-04-17T00:28:17.271Z,69.39
2023-04-17T00:30:45.554Z,69.51
2023-04-17T00:33:13.947Z,69.29
2023-04-17T00:35:43.753Z,69.42
2023-04-17T00:38:12.194Z,69.44
2023-04-17T00:40:40.589Z,69.32
2023-04-17T00:43:09.117Z,69.36
2023-04-17T00:45:37.754Z,69.19
2023-04-17T00:48:08.155Z,68.98
2023-04-17T00:50:37.404Z,69.19
2023-04-17T00:53:08.082Z,69.23
2023-04-17T00:55:37.275Z,69.11
2023-04-17T00:58:06.571Z,69.63
2023-04-17T01:00:35.729Z,69.31
2023-04-17T01:03:04.447Z,69.33
2023-04-17T01:05:35.611Z,69.08
2023-04-17T01:08:04.054Z,69.02
2023-04-17T01:10:34.063Z,69.30
2023-04-17T01:13:06.434Z,69.27
2023-04-17T01:15:36.899Z,69.36
2023-04-17T01:18:06.254Z,69.29
2023-04-17T01:20:35.315Z,69.53
2023-04-17T01:23:03.647Z,69.49
2023-04-17T01:25:33.476Z,69.50
2023-04-17T01:28:02.460Z,69.44
2023-04-17T01:30:31.641Z,69.45
2023-04-17T01:33:06.669Z,69.29
2023-04-17T01:35:35.120Z,69.42
2023-04-17T01:38:03.436Z,69.26
2023-04-17T01:40:33.237Z,69.16
2023-04-17T01:43:01.983Z,69.64
2023-04-17T01:45:30.428Z,69.39
2023-04-17T01:48:01.113Z,69.40
2023-04-17T01:50:29.544Z,69.70
2023-04-17T01:52:57.785Z,69.51
2023-04-17T01:55:26.247Z,69.95
2023-04-17T01:57:55.880Z,70.06
2023-04-17T02:00:24.502Z,70.31
2023-04-17T02:02:53.105Z,70.34
2023-04-17T02:05:21.856Z,69.98
2023-04-17T02:07:51.651Z,70.21
2023-04-17T02:10:20.423Z,70.03
2023-04-17T02:12:48.656Z,69.81
2023-04-17T02:15:18.486Z,70.10
2023-04-17T02:17:47.262Z,70.25
2023-04-17T02:20:15.692Z,70.08
2023-04-17T02:22:44.024Z,70.38
2023-04-17T02:25:12.364Z,69.88
2023-04-17T02:27:40.758Z,70.05
2023-04-17T02:30:10.090Z,69.89
2023-04-17T02:32:39.848Z,69.86
2023-04-17T02:35:09.271Z,69.77
2023-04-17T02:37:37.922Z,70.03
2023-04-17T02:40:08.213Z,69.90
2023-04-17T02:42:36.555Z,70.18
2023-04-17T02:45:05.877Z,69.96
2023-04-17T02:47:34.338Z,69.74
2023-04-17T02:50:05.535Z,69.69
2023-04-17T02:52:39.561Z,69.99
2023-04-17T02:55:09.766Z,69.57
2023-04-17T02:57:39.254Z,69.94
2023-04-17T03:00:10.895Z,69.61
2023-04-17T03:02:39.573Z,70.13
2023-04-17T03:05:11.625Z,69.94
2023-04-17T03:07:40.243Z,69.99
2023-04-17T03:10:09.869Z,69.94
2023-04-17T03:12:38.506Z,70.04
2023-04-17T03:15:08.952Z,70.07
2023-04-17T03:17:37.781Z,70.11
2023-04-17T03:20:09.530Z,70.03
2023-04-17T03:22:38.054Z,70.23
2023-04-17T03:25:08.523Z,70.43
2023-04-17T03:27:45.006Z,70.29
2023-04-17T03:30:15.100Z,70.16
2023-04-17T03:32:47.837Z,70.33
2023-04-17T03:35:17.762Z,70.06
2023-04-17T03:37:46.317Z,69.78
2023-04-17T03:40:15.181Z,70.13
2023-04-17T03:42:45.948Z,69.94
2023-04-17T03:45:14.999Z,70.08
2023-04-17T03:47:43.751Z,69.93
2023-04-17T03:50:12.541Z,69.91
2023-04-17T03:52:48.808Z,69.62
2023-04-17T03:55:17.996Z,70.12
2023-04-17T03:57:48.784Z,69.96
2023-04-17T04:00:18.280Z,69.61
2023-04-17T04:02:57.817Z,69.64
2023-04-17T04:05:30.722Z,69.35
2023-04-17T04:08:01.077Z,68.48
2023-04-17T04:10:44.305Z,67.98
2023-04-17T04:13:15.899Z,68.06
2023-04-17T04:15:49.764Z,67.86
2023-04-17T04:18:20.980Z,67.30
2023-04-17T04:20:50.061Z,66.64
2023-04-17T04:23:28.234Z,66.51
2023-04-17T04:25:58.007Z,66.15
2023-04-17T04:28:34.642Z,65.31
2023-04-17T04:31:04.514Z,64.96
2023-04-17T04:33:38.574Z,64.35
2023-04-17T04:36:08.618Z,63.96
2023-04-17T04:38:39.484Z,63.45
2023-04-17T04:41:25.242Z,62.93
2023-04-17T04:43:55.389Z,61.97
2023-04-17T04:46:24.302Z,61.94
2023-04-17T04:48:54.069Z,61.77
2023-04-17T04:51:22.280Z,61.11
2023-04-17T04:53:53.381Z,60.84
2023-04-17T04:56:21.863Z,60.81
2023-04-17T04:58:51.393Z,60.98
2023-04-17T05:01:21.166Z,60.70
2023-04-17T05:03:51.397Z,60.22
2023-04-17T05:06:24.489Z,59.90
2023-04-17T05:09:01.140Z,59.72
2023-04-17T05:11:29.431Z,59.70
2023-04-17T05:13:58.931Z,59.57
2023-04-17T05:16:31.116Z,59.93
2023-04-17T05:19:00.260Z,60.14
2023-04-17T05:21:49.320Z,60.29
2023-04-17T05:24:21.289Z,60.73
2023-04-17T05:26:50.756Z,60.95
2023-04-17T05:29:19.687Z,60.66
2023-04-17T05:31:48.630Z,60.46
2023-04-17T05:34:29.440Z,60.34
2023-04-17T05:36:57.742Z,60.23
2023-04-17T05:39:27.438Z,60.87
2023-04-17T05:41:57.466Z,61.28
2023-04-17T05:44:25.950Z,61.50
2023-04-17T05:46:57.095Z,61.41
2023-04-17T05:49:25.312Z,61.06
2023-04-17T05:51:54.444Z,60.85
2023-04-17T05:54:22.948Z,60.30
2023-04-17T05:56:53.479Z,59.80
2023-04-17T05:59:22.712Z,59.00
2023-04-17T06:01:52.628Z,58.38
2023-04-17T06:04:23.331Z,58.10
2023-04-17T06:06:52.848Z,56.72
2023-04-17T06:09:23.435Z,56.22
2023-04-17T06:11:54.389Z,55.51
2023-04-17T06:14:23.007Z,54.33
2023-04-17T06:16:51.962Z,51.57
2023-04-17T06:19:20.988Z,49.03
2023-04-17T06:21:49.437Z,47.40
2023-04-17T06:24:19.001Z,47.45
2023-04-17T06:26:49.123Z,47.09
2023-04-17T06:29:18.950Z,46.29
2023-04-17T06:31:47.197Z,44.79
2023-04-17T06:34:17.972Z,43.08
2023-04-17T06:36:48.287Z,40.92
2023-04-17T06:39:18.410Z,41.29
2023-04-17T06:41:48.577Z,39.10
2023-04-17T06:44:25.835Z,41.16
2023-04-17T06:46:56.071Z,41.67
2023-04-17T06:49:25.419Z,42.27
2023-04-17T06:51:53.614Z,42.06
2023-04-17T06:54:21.927Z,41.13
2023-04-17T06:56:50.365Z,39.51
2023-04-17T06:59:18.851Z,38.70
2023-04-17T07:01:48.867Z,38.44
2023-04-17T07:04:18.219Z,37.46
2023-04-17T07:06:46.564Z,37.79
2023-04-17T07:09:15.069Z,36.77
2023-04-17T07:11:43.415Z,36.63
2023-04-17T07:14:12.892Z,36.33
2023-04-17T07:16:41.566Z,36.86
2023-04-17T07:19:11.565Z,38.40
2023-04-17T07:21:40.068Z,39.17
2023-04-17T07:24:08.844Z,39.88
2023-04-17T07:26:37.610Z,40.47
2023-04-17T07:29:05.885Z,42.02
2023-04-17T07:31:34.218Z,41.72
2023-04-17T07:34:05.380Z,40.54
2023-04-17T07:36:35.181Z,40.51
2023-04-17T07:39:03.515Z,41.07
2023-04-17T07:41:31.982Z,41.45
2023-04-17T07:44:03.428Z,41.77
2023-04-17T07:46:32.074Z,41.29
2023-04-17T07:49:00.385Z,40.81
2023-04-17T07:51:28.982Z,41.24
2023-04-17T07:53:58.909Z,40.92
2023-04-17T07:56:28.278Z,42.05
2023-04-17T07:58:56.576Z,42.73
2023-04-17T08:01:25.038Z,43.50
2023-04-17T08:03:55.736Z,43.11
2023-04-17T08:06:24.470Z,43.60
2023-04-17T08:08:52.684Z,42.85
2023-04-17T08:11:22.458Z,42.63
2023-04-17T08:13:51.412Z,41.02
2023-04-17T08:16:19.792Z,39.46
2023-04-17T08:18:48.267Z,39.58
2023-04-17T08:21:16.523Z,39.47
2023-04-17T08:23:45.005Z,37.28
2023-04-17T08:26:13.210Z,36.16
2023-04-17T08:28:43.080Z,36.18
2023-04-17T08:31:11.573Z,34.29
2023-04-17T08:33:39.817Z,32.95
2023-04-17T08:36:09.988Z,34.18
2023-04-17T08:38:39.154Z,34.99
2023-04-17T08:41:14.555Z,34.07
2023-04-17T08:43:49.970Z,34.44
2023-04-17T08:46:19.177Z,34.71
2023-04-17T08:48:47.549Z,32.95
2023-04-17T08:51:16.400Z,33.62
2023-04-17T08:53:44.848Z,33.73
2023-04-17T08:56:13.302Z,33.77
2023-04-17T08:58:41.505Z,33.70
2023-04-17T09:01:12.781Z,33.53
2023-04-17T09:03:43.186Z,30.41
2023-04-17T09:06:12.173Z,29.40
2023-04-17T09:08:55.190Z,28.21
2023-04-17T09:11:23.577Z,28.84
2023-04-17T09:13:52.206Z,27.47
2023-04-17T09:16:22.217Z,28.50
2023-04-17T09:18:50.954Z,28.14
2023-04-17T09:21:20.253Z,28.11
2023-04-17T09:23:51.618Z,28.55
2023-04-17T09:26:22.141Z,27.78
2023-04-17T09:29:05.155Z,26.53
2023-04-17T09:31:36.352Z,27.43
2023-04-17T09:34:07.700Z,27.12
2023-04-17T09:36:38.406Z,27.94
2023-04-17T09:39:17.391Z,28.67
2023-04-17T09:41:45.879Z,28.37
2023-04-17T09:44:27.073Z,26.87
2023-04-17T09:46:57.837Z,28.74
2023-04-17T09:49:34.061Z,29.07
2023-04-17T09:52:03.666Z,30.19
2023-04-17T09:54:32.688Z,29.72
2023-04-17T09:57:04.131Z,30.08
2023-04-17T09:59:33.290Z,30.12
2023-04-17T10:02:04.575Z,29.49
2023-04-17T10:04:33.087Z,30.32
2023-04-17T10:07:02.968Z,28.13
2023-04-17T10:09:31.839Z,29.26
2023-04-17T10:12:01.828Z,29.77
2023-04-17T10:14:33.883Z,30.22
2023-04-17T10:17:25.098Z,30.10
2023-04-17T10:19:53.663Z,29.58
2023-04-17T10:22:31.912Z,30.37
2023-04-17T10:25:18.652Z,30.95
2023-04-17T10:27:50.063Z,32.18
2023-04-17T10:33:24.799Z,32.36
2023-04-17T10:35:54.788Z,32.48
2023-04-17T10:38:37.195Z,31.66
2023-04-17T10:41:09.614Z,31.41
2023-04-17T10:43:42.799Z,32.19
2023-04-17T10:46:12.963Z,31.66
2023-04-17T10:48:49.695Z,30.56
2023-04-17T10:51:44.076Z,30.04
2023-04-17T10:54:15.681Z,31.04
2023-04-17T10:56:48.497Z,31.72
2023-04-17T10:59:18.269Z,31.41
2023-04-17T11:02:04.785Z,30.96
2023-04-17T11:04:35.052Z,30.40
2023-04-17T11:07:03.581Z,29.89
2023-04-17T11:09:32.460Z,29.79
2023-04-17T11:12:02.949Z,29.43
2023-04-17T11:14:32.448Z,29.58
2023-04-17T11:17:02.242Z,29.13
2023-04-17T11:19:30.793Z,29.18
2023-04-17T11:22:01.696Z,29.59
2023-04-17T11:24:30.836Z,29.10
2023-04-17T11:27:02.257Z,28.84
2023-04-17T11:29:30.878Z,28.10
2023-04-17T11:32:00.948Z,28.33
2023-04-17T11:34:30.432Z,28.24
2023-04-17T11:37:02.381Z,28.34
2023-04-17T11:39:32.882Z,28.57
2023-04-17T11:42:02.525Z,28.95
2023-04-17T11:44:30.838Z,27.66
2023-04-17T11:46:59.803Z,28.30
2023-04-17T11:49:29.875Z,29.08
2023-04-17T11:52:00.867Z,28.94
2023-04-17T11:54:31.632Z,28.73
2023-04-17T11:57:02.407Z,28.24
2023-04-17T11:59:34.621Z,28.31
2023-04-17T12:02:03.408Z,28.98
2023-04-17T12:04:34.384Z,29.38
2023-04-17T12:07:03.983Z,29.68
2023-04-17T12:09:34.148Z,30.10
2023-04-17T12:12:05.606Z,31.66
2023-04-17T12:14:34.260Z,31.72
2023-04-17T12:17:02.556Z,31.35
2023-04-17T12:19:32.123Z,31.31
2023-04-17T12:22:01.000Z,31.88
2023-04-17T12:24:29.249Z,31.68
2023-04-17T12:27:02.181Z,32.45
2023-04-17T12:29:43.179Z,33.54
2023-04-17T12:32:13.341Z,33.58
2023-04-17T12:34:41.773Z,35.80
2023-04-17T12:37:10.450Z,41.31
2023-04-17T12:39:40.317Z,42.38
2023-04-17T12:42:10.086Z,43.02
2023-04-17T12:44:39.845Z,43.66
2023-04-17T12:47:09.007Z,44.32
2023-04-17T12:49:37.633Z,44.09
2023-04-17T12:52:05.979Z,44.73
2023-04-17T12:54:34.214Z,44.99
2023-04-17T12:57:03.532Z,44.98
2023-04-17T12:59:33.174Z,44.93
2023-04-17T13:02:01.951Z,44.99
2023-04-17T13:04:30.374Z,46.03
2023-04-17T13:06:59.323Z,45.81
2023-04-17T13:09:27.668Z,46.40
2023-04-17T13:11:56.034Z,45.88
2023-04-17T13:14:24.383Z,45.50
2023-04-17T13:16:54.318Z,46.02
2023-04-17T13:19:22.953Z,46.22
2023-04-17T13:21:52.915Z,45.71
2023-04-17T13:24:21.258Z,45.95
2023-04-17T13:26:49.537Z,47.11
2023-04-17T13:29:19.546Z,46.79
2023-04-17T13:31:48.339Z,46.95
2023-04-17T13:34:18.236Z,47.32
2023-04-17T13:36:46.925Z,47.09
2023-04-17T13:39:15.612Z,47.94
2023-04-17T13:41:44.136Z,47.59
2023-04-17T13:44:13.758Z,47.26
2023-04-17T13:46:42.451Z,46.10
2023-04-17T13:49:10.885Z,46.76
2023-04-17T13:51:41.035Z,46.48
2023-04-17T13:54:10.841Z,46.18
2023-04-17T13:56:39.213Z,45.66
2023-04-17T13:59:07.591Z,46.25
2023-04-17T14:01:35.908Z,46.17
2023-04-17T14:04:04.605Z,45.83
2023-04-17T14:06:34.604Z,46.48
2023-04-17T14:09:05.939Z,46.27
2023-04-17T14:11:34.185Z,46.48
2023-04-17T14:14:02.363Z,45.55
2023-04-17T14:16:32.555Z,45.88
2023-04-17T14:19:09.693Z,46.06
2023-04-17T14:21:41.725Z,45.97
2023-04-17T14:24:11.546Z,45.65
2023-04-17T14:26:40.661Z,45.83
2023-04-17T14:29:10.768Z,46.26
2023-04-17T14:31:39.363Z,45.92
2023-04-17T14:34:07.848Z,45.14
2023-04-17T14:36:36.494Z,45.29
2023-04-17T14:39:05.009Z,45.21
2023-04-17T14:41:35.016Z,45.35
2023-04-17T14:44:03.411Z,45.82
2023-04-17T14:46:32.104Z,45.41
2023-04-17T14:49:00.577Z,45.21
2023-04-17T14:51:30.402Z,45.02
2023-04-17T14:53:59.257Z,45.25
2023-04-17T14:56:27.916Z,45.67
2023-04-17T14:58:57.683Z,45.62
2023-04-17T15:01:26.089Z,45.42
2023-04-17T15:03:54.646Z,45.54
2023-04-17T15:06:23.089Z,45.62
2023-04-17T15:08:51.478Z,45.70
2023-04-17T15:11:19.885Z,45.88
2023-04-17T15:13:48.323Z,46.01
2023-04-17T15:16:18.175Z,46.67
2023-04-17T15:18:46.520Z,45.83
2023-04-17T15:21:15.742Z,46.17
2023-04-17T15:23:44.060Z,45.69
2023-04-17T15:26:13.576Z,46.19
2023-04-17T15:28:42.176Z,47.31
2023-04-17T15:31:10.461Z,47.65
2023-04-17T15:33:40.732Z,47.13
2023-04-17T15:36:09.244Z,47.36
2023-04-17T15:38:37.791Z,47.96
2023-04-17T15:41:11.291Z,48.41
2023-04-17T15:43:40.140Z,46.20
2023-04-17T15:46:08.565Z,48.02
2023-04-17T15:48:37.092Z,49.36
2023-04-17T15:51:07.196Z,50.08
2023-04-17T15:53:35.865Z,48.85
2023-04-17T15:56:04.468Z,49.17
2023-04-17T15:58:32.948Z,48.35
2023-04-17T16:01:01.429Z,48.62
2023-04-17T16:03:29.867Z,47.79
2023-04-17T16:05:59.440Z,48.15
2023-04-17T16:08:29.258Z,48.40
2023-04-17T16:10:57.726Z,49.05
2023-04-17T16:13:25.990Z,48.96
2023-04-17T16:15:54.418Z,48.49
2023-04-17T16:18:22.719Z,48.92
2023-04-17T16:20:51.217Z,48.73
2023-04-17T16:23:19.701Z,48.43
2023-04-17T16:25:50.345Z,48.02
2023-04-17T16:28:18.803Z,48.45
2023-04-17T16:30:47.986Z,48.18
2023-04-17T16:33:16.599Z,47.76
2023-04-17T16:35:45.043Z,48.81
2023-04-17T16:38:13.520Z,48.03
2023-04-17T16:40:42.018Z,46.88
2023-04-17T16:43:11.910Z,47.56
2023-04-17T16:45:40.386Z,47.77
2023-04-17T16:48:11.272Z,48.32
2023-04-17T16:50:39.708Z,48.48
2023-04-17T16:53:08.082Z,48.29
2023-04-17T16:55:37.991Z,48.99
2023-04-17T16:58:06.380Z,48.77
2023-04-17T17:00:36.338Z,49.55
2023-04-17T17:03:05.883Z,49.02
2023-04-17T17:05:34.345Z,48.21
2023-04-17T17:08:02.828Z,47.44
2023-04-17T17:10:31.182Z,47.27
2023-04-17T17:12:59.585Z,46.23
2023-04-17T17:15:28.041Z,47.06
2023-04-17T17:17:57.773Z,47.15
2023-04-17T17:20:26.168Z,47.92
2023-04-17T17:22:54.470Z,47.93
2023-04-17T17:25:23.146Z,48.15
2023-04-17T17:27:51.542Z,48.23
2023-04-17T17:30:20.095Z,48.90
2023-04-17T17:32:48.293Z,49.21
2023-04-17T17:35:18.031Z,49.48
2023-04-17T17:37:46.273Z,49.23
2023-04-17T17:40:14.567Z,48.99
2023-04-17T17:42:42.997Z,48.79
2023-04-17T17:45:11.862Z,49.19
2023-04-17T17:47:41.386Z,49.37
2023-04-17T17:50:10.276Z,49.89
2023-04-17T17:52:40.414Z,49.78
2023-04-17T17:55:09.196Z,49.73
2023-04-17T17:57:48.257Z,49.72
2023-04-17T18:00:18.418Z,49.80
2023-04-17T18:02:47.022Z,50.61
2023-04-17T18:05:15.464Z,50.45
2023-04-17T18:07:45.270Z,51.44
2023-04-17T18:10:13.960Z,51.64
2023-04-17T18:12:42.301Z,52.04
2023-04-17T18:15:11.351Z,52.53
2023-04-17T18:17:39.612Z,52.67
2023-04-17T18:20:09.255Z,52.87
2023-04-17T18:22:38.558Z,53.33
2023-04-17T18:25:09.347Z,53.46
2023-04-17T18:27:37.835Z,54.07
2023-04-17T18:30:07.266Z,53.98
2023-04-17T18:32:37.290Z,54.85
2023-04-17T18:35:06.425Z,55.25
2023-04-17T18:37:34.940Z,55.79
2023-04-17T18:40:03.375Z,56.12
2023-04-17T18:42:32.966Z,56.19
2023-04-17T18:45:01.294Z,56.52
2023-04-17T18:47:29.620Z,57.35
2023-04-17T18:49:58.269Z,57.44
2023-04-17T18:52:26.544Z,57.75
2023-04-17T18:54:54.846Z,58.29
2023-04-17T18:57:23.104Z,58.11
2023-04-17T18:59:52.763Z,58.85
2023-04-17T19:02:21.565Z,59.27
2023-04-17T19:04:50.074Z,59.48
2023-04-17T19:07:19.041Z,59.64
2023-04-17T19:09:47.285Z,60.00
2023-04-17T19:12:15.844Z,60.50
2023-04-17T19:14:44.182Z,60.72
2023-04-17T19:17:14.132Z,61.19
2023-04-17T19:19:42.344Z,61.48
2023-04-17T19:22:10.623Z,61.26
2023-04-17T19:24:38.907Z,61.88
2023-04-17T19:27:07.991Z,62.14
2023-04-17T19:29:36.220Z,62.77
2023-04-17T19:32:04.825Z,63.11
2023-04-17T19:34:34.607Z,63.90
2023-04-17T19:37:03.148Z,64.11
2023-04-17T19:39:33.180Z,64.24
2023-04-17T19:42:01.560Z,64.60
2023-04-17T19:44:29.797Z,64.96
2023-04-17T19:46:58.350Z,64.58
2023-04-17T19:49:26.603Z,65.02
2023-04-17T19:51:56.429Z,65.31
2023-04-17T19:54:24.857Z,65.20
2023-04-17T19:56:53.149Z,65.71
2023-04-17T19:59:21.748Z,66.17
2023-04-17T20:01:50.204Z,65.86
2023-04-17T20:04:19.309Z,66.17
2023-04-17T20:15:39.484Z,67.44
2023-04-17T20:18:09.704Z,67.92
2023-04-17T20:20:38.563Z,68.15
2023-04-17T20:23:07.163Z,68.72
2023-04-17T20:25:37.870Z,68.21
2023-04-17T20:28:06.579Z,68.40
2023-04-17T20:30:35.028Z,68.48
2023-04-17T20:33:05.138Z,68.42
2023-04-17T20:35:34.143Z,68.68
2023-04-17T20:38:02.633Z,68.99
2023-04-17T20:40:31.229Z,69.25
2023-04-17T20:42:59.672Z,69.19
2023-04-17T20:45:31.119Z,69.38
2023-04-17T20:47:59.610Z,69.95
2023-04-17T20:50:29.816Z,69.42
2023-04-17T20:52:58.210Z,70.16
2023-04-17T20:55:28.056Z,70.21
2023-04-17T20:57:56.383Z,70.15
2023-04-17T21:00:24.528Z,70.27
2023-04-17T21:02:52.823Z,70.34
2023-04-17T21:05:21.048Z,70.60
2023-04-17T21:07:51.683Z,70.90
2023-04-17T21:10:20.973Z,70.98
2023-04-17T21:12:49.209Z,71.05
2023-04-17T21:15:17.561Z,70.71
2023-04-17T21:17:47.948Z,70.97
2023-04-17T21:20:16.336Z,70.88
2023-04-17T21:22:44.709Z,71.05
2023-04-17T21:25:14.484Z,71.45
2023-04-17T21:27:43.846Z,71.92
2023-04-17T21:30:12.623Z,71.44
2023-04-17T21:32:42.347Z,72.27
2023-04-17T21:35:11.447Z,72.16
2023-04-17T21:37:39.716Z,72.21
2023-04-17T21:40:09.152Z,72.63
2023-04-17T21:42:38.940Z,72.43
2023-04-17T21:45:08.525Z,72.55
2023-04-17T21:47:36.836Z,73.09
2023-04-17T21:50:05.589Z,73.29
2023-04-17T21:52:33.872Z,72.86
2023-04-17T21:55:05.726Z,73.05
2023-04-17T21:57:34.177Z,73.42
2023-04-17T22:00:05.662Z,73.24
2023-04-17T22:02:34.793Z,73.33
2023-04-17T22:05:03.136Z,73.71
2023-04-17T22:07:35.922Z,73.69
2023-04-17T22:10:10.870Z,74.27
2023-04-17T22:12:39.267Z,74.39
2023-04-17T22:15:10.344Z,74.31
2023-04-17T22:17:38.768Z,74.21
2023-04-17T22:20:08.521Z,75.18
2023-04-17T22:22:36.957Z,74.64
2023-04-17T22:25:05.956Z,75.10
2023-04-17T22:27:34.347Z,74.67
2023-04-17T22:30:02.817Z,74.64
2023-04-17T22:32:34.424Z,74.24
2023-04-17T22:35:02.915Z,74.42
2023-04-17T22:37:31.226Z,74.19
2023-04-17T22:39:59.574Z,74.55
2023-04-17T22:42:28.109Z,74.30
2023-04-17T22:44:56.396Z,74.50
2023-04-17T22:47:24.756Z,74.44
2023-04-17T22:49:55.307Z,74.45
2023-04-17T22:52:23.651Z,74.50
2023-04-17T22:54:51.849Z,74.72
2023-04-17T22:57:20.490Z,74.57
2023-04-17T22:59:48.887Z,74.68
2023-04-17T23:02:17.427Z,74.74
2023-04-17T23:04:45.911Z,75.10
2023-04-17T23:07:15.673Z,75.03
2023-04-17T23:09:44.880Z,75.35
2023-04-17T23:12:13.208Z,75.59
2023-04-17T23:14:41.636Z,75.78
2023-04-17T23:17:10.083Z,75.89
2023-04-17T23:19:38.505Z,76.34
2023-04-17T23:22:08.017Z,76.23
2023-04-17T23:24:37.764Z,76.75
2023-04-17T23:27:06.167Z,76.12
2023-04-17T23:29:34.768Z,77.33
2023-04-17T23:32:04.710Z,77.49
2023-04-17T23:34:33.013Z,77.75
2023-04-17T23:37:02.272Z,78.28
2023-04-17T23:39:31.394Z,78.96
2023-04-17T23:42:07.231Z,79.29
2023-04-17T23:44:35.764Z,78.99
2023-04-17T23:47:05.036Z,79.81
2023-04-17T23:49:34.181Z,80.19
2023-04-17T23:52:02.433Z,79.97
2023-04-17T23:54:32.728Z,80.30
2023-04-17T23:57:02.986Z,81.13
2023-04-17T23:59:31.371Z,80.72
